sensor_id;sensor_type;location;lat;lon;timestamp;P1;durP1;ratioP1;P2;durP2;ratioP2
52940;SDS011;62001;53.366;6.636;2023-05-07T00:00:36;45.20;;;31.63;;
52940;SDS011;62001;53.366;6.636;2023-05-07T00:03:02;49.72;;;32.95;;
52940;SDS011;62001;53.366;6.636;2023-05-07T00:05:28;44.80;;;30.77;;
52940;SDS011;62001;53.366;6.636;2023-05-07T00:07:54;51.83;;;34.00;;
52940;SDS011;62001;53.366;6.636;2023-05-07T00:10:20;47.35;;;34.00;;
52940;SDS011;62001;53.366;6.636;2023-05-07T00:12:46;44.83;;;33.92;;
52940;SDS011;62001;53.366;6.636;2023-05-07T00:15:12;55.00;;;34.70;;
52940;SDS011;62001;53.366;6.636;2023-05-07T00:17:37;46.28;;;34.17;;
52940;SDS011;62001;53.366;6.636;2023-05-07T00:20:04;53.47;;;35.33;;
52940;SDS011;62001;53.366;6.636;2023-05-07T00:22:30;49.78;;;35.50;;
52940;SDS011;62001;53.366;6.636;2023-05-07T00:24:57;51.22;;;35.58;;
52940;SDS011;62001;53.366;6.636;2023-05-07T00:27:24;52.47;;;36.28;;
52940;SDS011;62001;53.366;6.636;2023-05-07T00:29:49;51.45;;;35.67;;
52940;SDS011;62001;53.366;6.636;2023-05-07T00:32:16;53.67;;;36.90;;
52940;SDS011;62001;53.366;6.636;2023-05-07T00:34:42;54.63;;;36.22;;
52940;SDS011;62001;53.366;6.636;2023-05-07T00:37:08;53.92;;;37.08;;
52940;SDS011;62001;53.366;6.636;2023-05-07T00:39:34;53.28;;;36.80;;
52940;SDS011;62001;53.366;6.636;2023-05-07T00:42:01;52.20;;;37.25;;
52940;SDS011;62001;53.366;6.636;2023-05-07T00:44:28;53.53;;;36.83;;
52940;SDS011;62001;53.366;6.636;2023-05-07T00:46:55;53.63;;;37.45;;
52940;SDS011;62001;53.366;6.636;2023-05-07T00:49:24;56.55;;;39.17;;
52940;SDS011;62001;53.366;6.636;2023-05-07T00:51:56;57.08;;;38.80;;
52940;SDS011;62001;53.366;6.636;2023-05-07T00:54:22;59.08;;;38.85;;
52940;SDS011;62001;53.366;6.636;2023-05-07T00:56:48;57.17;;;40.55;;
52940;SDS011;62001;53.366;6.636;2023-05-07T00:59:14;60.45;;;40.78;;
52940;SDS011;62001;53.366;6.636;2023-05-07T01:01:40;58.83;;;39.38;;
52940;SDS011;62001;53.366;6.636;2023-05-07T01:04:06;62.58;;;43.70;;
52940;SDS011;62001;53.366;6.636;2023-05-07T01:06:32;67.57;;;44.85;;
52940;SDS011;62001;53.366;6.636;2023-05-07T01:08:58;62.17;;;44.00;;
52940;SDS011;62001;53.366;6.636;2023-05-07T01:11:25;66.55;;;44.10;;
52940;SDS011;62001;53.366;6.636;2023-05-07T01:13:51;62.33;;;41.10;;
52940;SDS011;62001;53.366;6.636;2023-05-07T01:16:18;65.28;;;40.88;;
52940;SDS011;62001;53.366;6.636;2023-05-07T01:18:43;63.97;;;42.35;;
52940;SDS011;62001;53.366;6.636;2023-05-07T01:21:13;58.73;;;39.73;;
52940;SDS011;62001;53.366;6.636;2023-05-07T01:23:41;61.10;;;40.47;;
52940;SDS011;62001;53.366;6.636;2023-05-07T01:26:08;61.25;;;40.92;;
52940;SDS011;62001;53.366;6.636;2023-05-07T01:28:34;60.83;;;40.83;;
52940;SDS011;62001;53.366;6.636;2023-05-07T01:31:00;65.20;;;42.72;;
52940;SDS011;62001;53.366;6.636;2023-05-07T01:33:29;69.75;;;46.30;;
52940;SDS011;62001;53.366;6.636;2023-05-07T01:35:58;71.32;;;45.33;;
52940;SDS011;62001;53.366;6.636;2023-05-07T01:38:31;71.53;;;46.00;;
52940;SDS011;62001;53.366;6.636;2023-05-07T01:40:57;74.30;;;46.92;;
52940;SDS011;62001;53.366;6.636;2023-05-07T01:43:23;78.25;;;49.75;;
52940;SDS011;62001;53.366;6.636;2023-05-07T01:45:49;76.70;;;48.38;;
52940;SDS011;62001;53.366;6.636;2023-05-07T01:48:15;81.85;;;52.00;;
52940;SDS011;62001;53.366;6.636;2023-05-07T01:50:42;83.07;;;50.95;;
52940;SDS011;62001;53.366;6.636;2023-05-07T01:53:09;87.15;;;53.70;;
52940;SDS011;62001;53.366;6.636;2023-05-07T01:55:35;87.25;;;52.75;;
52940;SDS011;62001;53.366;6.636;2023-05-07T01:58:02;93.35;;;54.35;;
52940;SDS011;62001;53.366;6.636;2023-05-07T02:00:28;90.80;;;54.80;;
52940;SDS011;62001;53.366;6.636;2023-05-07T02:02:54;88.32;;;54.42;;
52940;SDS011;62001;53.366;6.636;2023-05-07T02:05:20;90.40;;;55.65;;
52940;SDS011;62001;53.366;6.636;2023-05-07T02:07:46;97.03;;;55.60;;
52940;SDS011;62001;53.366;6.636;2023-05-07T02:10:12;94.28;;;58.60;;
52940;SDS011;62001;53.366;6.636;2023-05-07T02:12:37;97.75;;;57.90;;
52940;SDS011;62001;53.366;6.636;2023-05-07T02:15:03;105.95;;;59.38;;
52940;SDS011;62001;53.366;6.636;2023-05-07T02:17:30;103.80;;;59.13;;
52940;SDS011;62001;53.366;6.636;2023-05-07T02:19:58;105.68;;;60.20;;
52940;SDS011;62001;53.366;6.636;2023-05-07T02:22:24;104.72;;;60.15;;
52940;SDS011;62001;53.366;6.636;2023-05-07T02:24:50;103.22;;;58.97;;
52940;SDS011;62001;53.366;6.636;2023-05-07T02:27:16;108.88;;;59.85;;
52940;SDS011;62001;53.366;6.636;2023-05-07T02:29:42;112.18;;;63.42;;
52940;SDS011;62001;53.366;6.636;2023-05-07T02:32:08;106.32;;;59.97;;
52940;SDS011;62001;53.366;6.636;2023-05-07T02:34:34;113.65;;;61.58;;
52940;SDS011;62001;53.366;6.636;2023-05-07T02:36:59;116.00;;;60.42;;
52940;SDS011;62001;53.366;6.636;2023-05-07T02:39:25;107.25;;;59.75;;
52940;SDS011;62001;53.366;6.636;2023-05-07T02:41:51;112.45;;;60.05;;
52940;SDS011;62001;53.366;6.636;2023-05-07T02:44:17;108.53;;;59.28;;
52940;SDS011;62001;53.366;6.636;2023-05-07T02:46:43;107.53;;;59.42;;
52940;SDS011;62001;53.366;6.636;2023-05-07T02:49:08;104.40;;;56.75;;
52940;SDS011;62001;53.366;6.636;2023-05-07T02:51:34;104.30;;;56.63;;
52940;SDS011;62001;53.366;6.636;2023-05-07T02:54:00;100.68;;;53.55;;
52940;SDS011;62001;53.366;6.636;2023-05-07T02:56:26;97.35;;;51.15;;
52940;SDS011;62001;53.366;6.636;2023-05-07T02:58:52;86.88;;;51.22;;
52940;SDS011;62001;53.366;6.636;2023-05-07T03:01:18;87.35;;;48.92;;
52940;SDS011;62001;53.366;6.636;2023-05-07T03:03:44;85.32;;;49.05;;
52940;SDS011;62001;53.366;6.636;2023-05-07T03:06:09;83.45;;;47.55;;
52940;SDS011;62001;53.366;6.636;2023-05-07T03:08:35;85.40;;;47.38;;
52940;SDS011;62001;53.366;6.636;2023-05-07T03:11:02;79.40;;;45.53;;
52940;SDS011;62001;53.366;6.636;2023-05-07T03:13:27;80.70;;;46.58;;
52940;SDS011;62001;53.366;6.636;2023-05-07T03:15:53;86.22;;;46.63;;
52940;SDS011;62001;53.366;6.636;2023-05-07T03:18:19;83.88;;;46.65;;
52940;SDS011;62001;53.366;6.636;2023-05-07T03:20:45;91.40;;;47.80;;
52940;SDS011;62001;53.366;6.636;2023-05-07T03:23:13;96.53;;;52.63;;
52940;SDS011;62001;53.366;6.636;2023-05-07T03:25:40;97.47;;;51.28;;
52940;SDS011;62001;53.366;6.636;2023-05-07T03:28:06;110.95;;;58.83;;
52940;SDS011;62001;53.366;6.636;2023-05-07T03:30:31;110.60;;;59.17;;
52940;SDS011;62001;53.366;6.636;2023-05-07T03:32:57;111.65;;;59.40;;
52940;SDS011;62001;53.366;6.636;2023-05-07T03:35:23;111.25;;;58.78;;
52940;SDS011;62001;53.366;6.636;2023-05-07T03:37:49;103.53;;;60.15;;
52940;SDS011;62001;53.366;6.636;2023-05-07T03:40:15;110.60;;;60.53;;
52940;SDS011;62001;53.366;6.636;2023-05-07T03:42:41;110.15;;;61.30;;
52940;SDS011;62001;53.366;6.636;2023-05-07T03:45:07;116.95;;;65.13;;
52940;SDS011;62001;53.366;6.636;2023-05-07T03:47:33;119.68;;;66.65;;
52940;SDS011;62001;53.366;6.636;2023-05-07T03:49:59;117.38;;;66.18;;
52940;SDS011;62001;53.366;6.636;2023-05-07T03:52:25;119.22;;;66.53;;
52940;SDS011;62001;53.366;6.636;2023-05-07T03:54:52;127.85;;;69.75;;
52940;SDS011;62001;53.366;6.636;2023-05-07T03:57:18;125.53;;;66.80;;
52940;SDS011;62001;53.366;6.636;2023-05-07T03:59:44;123.15;;;68.57;;
52940;SDS011;62001;53.366;6.636;2023-05-07T04:02:10;124.43;;;67.97;;
52940;SDS011;62001;53.366;6.636;2023-05-07T04:04:36;125.85;;;68.05;;
52940;SDS011;62001;53.366;6.636;2023-05-07T04:07:02;123.47;;;66.20;;
52940;SDS011;62001;53.366;6.636;2023-05-07T04:09:28;111.03;;;61.60;;
52940;SDS011;62001;53.366;6.636;2023-05-07T04:11:54;103.70;;;56.38;;
52940;SDS011;62001;53.366;6.636;2023-05-07T04:14:19;97.50;;;53.95;;
52940;SDS011;62001;53.366;6.636;2023-05-07T04:16:45;92.47;;;51.58;;
52940;SDS011;62001;53.366;6.636;2023-05-07T04:19:11;89.78;;;50.40;;
52940;SDS011;62001;53.366;6.636;2023-05-07T04:21:37;89.78;;;49.35;;
52940;SDS011;62001;53.366;6.636;2023-05-07T04:24:03;94.07;;;51.17;;
52940;SDS011;62001;53.366;6.636;2023-05-07T04:26:29;94.15;;;52.53;;
52940;SDS011;62001;53.366;6.636;2023-05-07T04:28:55;98.57;;;54.60;;
52940;SDS011;62001;53.366;6.636;2023-05-07T04:31:22;100.22;;;54.92;;
52940;SDS011;62001;53.366;6.636;2023-05-07T04:33:48;102.63;;;57.83;;
52940;SDS011;62001;53.366;6.636;2023-05-07T04:36:14;115.25;;;60.20;;
52940;SDS011;62001;53.366;6.636;2023-05-07T04:38:40;106.28;;;58.33;;
52940;SDS011;62001;53.366;6.636;2023-05-07T04:41:06;105.07;;;58.78;;
52940;SDS011;62001;53.366;6.636;2023-05-07T04:43:34;102.22;;;56.50;;
52940;SDS011;62001;53.366;6.636;2023-05-07T04:46:00;97.13;;;56.80;;
52940;SDS011;62001;53.366;6.636;2023-05-07T04:48:26;92.78;;;53.25;;
52940;SDS011;62001;53.366;6.636;2023-05-07T04:50:52;95.75;;;52.75;;
52940;SDS011;62001;53.366;6.636;2023-05-07T04:53:18;98.75;;;54.13;;
52940;SDS011;62001;53.366;6.636;2023-05-07T04:55:45;100.60;;;53.78;;
52940;SDS011;62001;53.366;6.636;2023-05-07T04:58:11;98.57;;;54.70;;
52940;SDS011;62001;53.366;6.636;2023-05-07T05:00:37;92.93;;;52.80;;
52940;SDS011;62001;53.366;6.636;2023-05-07T05:03:04;92.72;;;53.53;;
52940;SDS011;62001;53.366;6.636;2023-05-07T05:05:31;89.28;;;52.67;;
52940;SDS011;62001;53.366;6.636;2023-05-07T05:07:57;97.40;;;52.00;;
52940;SDS011;62001;53.366;6.636;2023-05-07T05:10:23;93.07;;;54.33;;
52940;SDS011;62001;53.366;6.636;2023-05-07T05:12:50;98.75;;;56.25;;
52940;SDS011;62001;53.366;6.636;2023-05-07T05:15:15;99.22;;;57.60;;
52940;SDS011;62001;53.366;6.636;2023-05-07T05:17:41;96.65;;;55.85;;
52940;SDS011;62001;53.366;6.636;2023-05-07T05:20:07;98.40;;;56.92;;
52940;SDS011;62001;53.366;6.636;2023-05-07T05:22:35;98.90;;;56.45;;
52940;SDS011;62001;53.366;6.636;2023-05-07T05:25:01;97.18;;;57.08;;
52940;SDS011;62001;53.366;6.636;2023-05-07T05:27:28;96.82;;;56.55;;
52940;SDS011;62001;53.366;6.636;2023-05-07T05:29:54;93.80;;;55.85;;
52940;SDS011;62001;53.366;6.636;2023-05-07T05:32:19;91.45;;;55.97;;
52940;SDS011;62001;53.366;6.636;2023-05-07T05:34:45;95.53;;;57.00;;
52940;SDS011;62001;53.366;6.636;2023-05-07T05:37:11;90.88;;;54.92;;
52940;SDS011;62001;53.366;6.636;2023-05-07T05:39:37;82.90;;;50.17;;
52940;SDS011;62001;53.366;6.636;2023-05-07T05:42:03;79.50;;;47.78;;
52940;SDS011;62001;53.366;6.636;2023-05-07T05:44:29;67.30;;;43.72;;
52940;SDS011;62001;53.366;6.636;2023-05-07T05:46:55;65.30;;;42.38;;
52940;SDS011;62001;53.366;6.636;2023-05-07T05:49:22;64.28;;;41.70;;
52940;SDS011;62001;53.366;6.636;2023-05-07T05:51:48;71.28;;;44.25;;
52940;SDS011;62001;53.366;6.636;2023-05-07T05:54:14;83.18;;;51.30;;
52940;SDS011;62001;53.366;6.636;2023-05-07T05:56:41;86.53;;;52.17;;
52940;SDS011;62001;53.366;6.636;2023-05-07T05:59:07;84.10;;;52.90;;
52940;SDS011;62001;53.366;6.636;2023-05-07T06:01:33;88.28;;;56.25;;
52940;SDS011;62001;53.366;6.636;2023-05-07T06:03:58;91.28;;;53.33;;
52940;SDS011;62001;53.366;6.636;2023-05-07T06:06:24;86.60;;;54.95;;
52940;SDS011;62001;53.366;6.636;2023-05-07T06:08:51;89.38;;;55.90;;
52940;SDS011;62001;53.366;6.636;2023-05-07T06:11:16;88.65;;;55.17;;
52940;SDS011;62001;53.366;6.636;2023-05-07T06:13:42;90.63;;;54.28;;
52940;SDS011;62001;53.366;6.636;2023-05-07T06:16:08;82.97;;;52.63;;
52940;SDS011;62001;53.366;6.636;2023-05-07T06:18:34;82.95;;;52.63;;
52940;SDS011;62001;53.366;6.636;2023-05-07T06:21:01;83.43;;;52.97;;
52940;SDS011;62001;53.366;6.636;2023-05-07T06:23:27;81.30;;;51.40;;
52940;SDS011;62001;53.366;6.636;2023-05-07T06:25:53;76.15;;;50.28;;
52940;SDS011;62001;53.366;6.636;2023-05-07T06:28:18;78.13;;;50.75;;
52940;SDS011;62001;53.366;6.636;2023-05-07T06:30:44;74.65;;;47.83;;
52940;SDS011;62001;53.366;6.636;2023-05-07T06:33:10;71.63;;;44.25;;
52940;SDS011;62001;53.366;6.636;2023-05-07T06:35:36;67.15;;;43.53;;
52940;SDS011;62001;53.366;6.636;2023-05-07T06:38:02;65.05;;;41.28;;
52940;SDS011;62001;53.366;6.636;2023-05-07T06:40:28;63.42;;;40.70;;
52940;SDS011;62001;53.366;6.636;2023-05-07T06:42:53;62.42;;;40.95;;
52940;SDS011;62001;53.366;6.636;2023-05-07T06:45:20;60.40;;;39.90;;
52940;SDS011;62001;53.366;6.636;2023-05-07T06:47:45;67.45;;;42.28;;
52940;SDS011;62001;53.366;6.636;2023-05-07T06:50:11;70.13;;;45.00;;
52940;SDS011;62001;53.366;6.636;2023-05-07T06:52:37;71.85;;;46.33;;
52940;SDS011;62001;53.366;6.636;2023-05-07T06:55:03;80.75;;;50.42;;
52940;SDS011;62001;53.366;6.636;2023-05-07T06:57:30;79.78;;;50.92;;
52940;SDS011;62001;53.366;6.636;2023-05-07T06:59:55;85.30;;;52.67;;
52940;SDS011;62001;53.366;6.636;2023-05-07T07:02:21;80.90;;;52.20;;
52940;SDS011;62001;53.366;6.636;2023-05-07T07:04:47;77.18;;;51.10;;
52940;SDS011;62001;53.366;6.636;2023-05-07T07:07:13;72.82;;;49.92;;
52940;SDS011;62001;53.366;6.636;2023-05-07T07:09:39;73.90;;;49.28;;
52940;SDS011;62001;53.366;6.636;2023-05-07T07:12:05;76.47;;;47.28;;
52940;SDS011;62001;53.366;6.636;2023-05-07T07:14:31;73.07;;;46.55;;
52940;SDS011;62001;53.366;6.636;2023-05-07T07:16:57;72.90;;;47.05;;
52940;SDS011;62001;53.366;6.636;2023-05-07T07:19:23;72.07;;;45.78;;
52940;SDS011;62001;53.366;6.636;2023-05-07T07:21:49;69.55;;;46.63;;
52940;SDS011;62001;53.366;6.636;2023-05-07T07:24:14;69.75;;;47.85;;
52940;SDS011;62001;53.366;6.636;2023-05-07T07:26:44;70.57;;;47.27;;
52940;SDS011;62001;53.366;6.636;2023-05-07T07:29:10;69.15;;;45.10;;
52940;SDS011;62001;53.366;6.636;2023-05-07T07:31:35;67.88;;;47.00;;
52940;SDS011;62001;53.366;6.636;2023-05-07T07:34:01;72.95;;;47.80;;
52940;SDS011;62001;53.366;6.636;2023-05-07T07:36:27;76.85;;;49.65;;
52940;SDS011;62001;53.366;6.636;2023-05-07T07:38:53;71.95;;;46.17;;
52940;SDS011;62001;53.366;6.636;2023-05-07T07:41:19;75.25;;;48.15;;
52940;SDS011;62001;53.366;6.636;2023-05-07T07:43:45;73.90;;;49.40;;
52940;SDS011;62001;53.366;6.636;2023-05-07T07:46:11;73.05;;;47.75;;
52940;SDS011;62001;53.366;6.636;2023-05-07T07:48:37;77.72;;;48.30;;
52940;SDS011;62001;53.366;6.636;2023-05-07T07:51:03;73.13;;;48.90;;
52940;SDS011;62001;53.366;6.636;2023-05-07T07:53:29;74.97;;;49.70;;
52940;SDS011;62001;53.366;6.636;2023-05-07T07:55:55;78.47;;;51.08;;
52940;SDS011;62001;53.366;6.636;2023-05-07T07:58:21;80.15;;;53.05;;
52940;SDS011;62001;53.366;6.636;2023-05-07T08:00:47;83.95;;;52.53;;
52940;SDS011;62001;53.366;6.636;2023-05-07T08:03:13;83.32;;;55.13;;
52940;SDS011;62001;53.366;6.636;2023-05-07T08:05:41;84.30;;;55.03;;
52940;SDS011;62001;53.366;6.636;2023-05-07T08:08:08;80.13;;;52.33;;
52940;SDS011;62001;53.366;6.636;2023-05-07T08:10:34;75.32;;;52.75;;
52940;SDS011;62001;53.366;6.636;2023-05-07T08:13:03;83.05;;;56.28;;
52940;SDS011;62001;53.366;6.636;2023-05-07T08:15:29;80.60;;;53.40;;
52940;SDS011;62001;53.366;6.636;2023-05-07T08:17:55;75.72;;;52.05;;
52940;SDS011;62001;53.366;6.636;2023-05-07T08:20:22;79.63;;;52.78;;
52940;SDS011;62001;53.366;6.636;2023-05-07T08:22:48;78.57;;;52.60;;
52940;SDS011;62001;53.366;6.636;2023-05-07T08:25:16;80.50;;;55.88;;
52940;SDS011;62001;53.366;6.636;2023-05-07T08:27:42;82.88;;;56.22;;
52940;SDS011;62001;53.366;6.636;2023-05-07T08:30:09;80.38;;;56.25;;
52940;SDS011;62001;53.366;6.636;2023-05-07T08:32:35;81.43;;;56.50;;
52940;SDS011;62001;53.366;6.636;2023-05-07T08:35:01;85.78;;;58.53;;
52940;SDS011;62001;53.366;6.636;2023-05-07T08:37:27;84.75;;;56.92;;
52940;SDS011;62001;53.366;6.636;2023-05-07T08:39:53;79.00;;;55.55;;
52940;SDS011;62001;53.366;6.636;2023-05-07T08:42:19;77.95;;;55.55;;
52940;SDS011;62001;53.366;6.636;2023-05-07T08:44:48;73.43;;;55.40;;
52940;SDS011;62001;53.366;6.636;2023-05-07T08:47:18;74.32;;;54.30;;
52940;SDS011;62001;53.366;6.636;2023-05-07T08:49:44;77.10;;;56.70;;
52940;SDS011;62001;53.366;6.636;2023-05-07T08:52:11;72.93;;;52.85;;
52940;SDS011;62001;53.366;6.636;2023-05-07T08:54:37;71.38;;;53.13;;
52940;SDS011;62001;53.366;6.636;2023-05-07T08:57:04;76.68;;;55.15;;
52940;SDS011;62001;53.366;6.636;2023-05-07T08:59:29;74.47;;;54.35;;
52940;SDS011;62001;53.366;6.636;2023-05-07T09:01:55;72.13;;;54.50;;
52940;SDS011;62001;53.366;6.636;2023-05-07T09:04:21;73.70;;;54.03;;
52940;SDS011;62001;53.366;6.636;2023-05-07T09:06:47;80.53;;;57.30;;
52940;SDS011;62001;53.366;6.636;2023-05-07T09:09:16;72.03;;;54.55;;
52940;SDS011;62001;53.366;6.636;2023-05-07T09:11:43;71.63;;;55.38;;
52940;SDS011;62001;53.366;6.636;2023-05-07T09:14:09;71.35;;;53.50;;
52940;SDS011;62001;53.366;6.636;2023-05-07T09:16:35;73.38;;;54.67;;
52940;SDS011;62001;53.366;6.636;2023-05-07T09:19:01;78.45;;;58.53;;
52940;SDS011;62001;53.366;6.636;2023-05-07T09:21:26;71.70;;;56.00;;
52940;SDS011;62001;53.366;6.636;2023-05-07T09:23:53;78.88;;;60.83;;
52940;SDS011;62001;53.366;6.636;2023-05-07T09:26:23;72.88;;;55.95;;
52940;SDS011;62001;53.366;6.636;2023-05-07T09:28:50;72.32;;;54.97;;
52940;SDS011;62001;53.366;6.636;2023-05-07T09:31:17;71.32;;;57.55;;
52940;SDS011;62001;53.366;6.636;2023-05-07T09:33:43;72.93;;;57.72;;
52940;SDS011;62001;53.366;6.636;2023-05-07T09:36:09;70.07;;;55.22;;
52940;SDS011;62001;53.366;6.636;2023-05-07T09:38:36;72.88;;;58.08;;
52940;SDS011;62001;53.366;6.636;2023-05-07T09:43:35;61.55;;;51.75;;
52940;SDS011;62001;53.366;6.636;2023-05-07T09:46:30;62.00;;;51.08;;
52940;SDS011;62001;53.366;6.636;2023-05-07T09:48:56;62.60;;;52.70;;
52940;SDS011;62001;53.366;6.636;2023-05-07T09:51:30;60.58;;;52.00;;
52940;SDS011;62001;53.366;6.636;2023-05-07T09:54:05;55.47;;;48.03;;
52940;SDS011;62001;53.366;6.636;2023-05-07T09:56:31;55.30;;;47.10;;
52940;SDS011;62001;53.366;6.636;2023-05-07T09:59:01;54.00;;;45.13;;
52940;SDS011;62001;53.366;6.636;2023-05-07T10:01:29;40.78;;;36.33;;
52940;SDS011;62001;53.366;6.636;2023-05-07T10:03:56;51.00;;;44.30;;
52940;SDS011;62001;53.366;6.636;2023-05-07T10:06:24;46.38;;;41.08;;
52940;SDS011;62001;53.366;6.636;2023-05-07T10:08:53;46.65;;;40.80;;
52940;SDS011;62001;53.366;6.636;2023-05-07T10:11:19;38.90;;;34.58;;
52940;SDS011;62001;53.366;6.636;2023-05-07T10:13:47;42.53;;;37.30;;
52940;SDS011;62001;53.366;6.636;2023-05-07T10:16:13;38.97;;;34.75;;
52940;SDS011;62001;53.366;6.636;2023-05-07T10:18:40;37.78;;;33.72;;
52940;SDS011;62001;53.366;6.636;2023-05-07T10:21:19;43.95;;;39.30;;
52940;SDS011;62001;53.366;6.636;2023-05-07T10:23:50;39.88;;;35.58;;
52940;SDS011;62001;53.366;6.636;2023-05-07T10:26:19;39.95;;;35.78;;
52940;SDS011;62001;53.366;6.636;2023-05-07T10:28:48;39.08;;;34.85;;
52940;SDS011;62001;53.366;6.636;2023-05-07T10:31:28;35.13;;;31.48;;
52940;SDS011;62001;53.366;6.636;2023-05-07T10:34:01;33.85;;;30.45;;
52940;SDS011;62001;53.366;6.636;2023-05-07T10:36:36;34.22;;;30.50;;
52940;SDS011;62001;53.366;6.636;2023-05-07T10:39:02;27.27;;;24.40;;
52940;SDS011;62001;53.366;6.636;2023-05-07T10:41:31;23.67;;;21.05;;
52940;SDS011;62001;53.366;6.636;2023-05-07T10:43:57;31.27;;;27.67;;
52940;SDS011;62001;53.366;6.636;2023-05-07T10:46:26;35.15;;;31.45;;
52940;SDS011;62001;53.366;6.636;2023-05-07T10:51:33;38.28;;;34.30;;
52940;SDS011;62001;53.366;6.636;2023-05-07T10:56:35;42.25;;;37.80;;
52940;SDS011;62001;53.366;6.636;2023-05-07T11:01:55;44.33;;;39.70;;
52940;SDS011;62001;53.366;6.636;2023-05-07T11:04:23;46.20;;;41.53;;
52940;SDS011;62001;53.366;6.636;2023-05-07T11:15:08;52.55;;;47.05;;
52940;SDS011;62001;53.366;6.636;2023-05-07T11:17:54;54.88;;;49.20;;
52940;SDS011;62001;53.366;6.636;2023-05-07T11:20:21;44.60;;;40.05;;
52940;SDS011;62001;53.366;6.636;2023-05-07T11:28:30;26.63;;;24.02;;
52940;SDS011;62001;53.366;6.636;2023-05-07T11:31:01;28.80;;;25.95;;
52940;SDS011;62001;53.366;6.636;2023-05-07T11:33:28;36.88;;;33.13;;
52940;SDS011;62001;53.366;6.636;2023-05-07T11:35:55;43.30;;;38.72;;
52940;SDS011;62001;53.366;6.636;2023-05-07T11:38:22;47.40;;;42.65;;
52940;SDS011;62001;53.366;6.636;2023-05-07T11:40:49;46.92;;;42.22;;
52940;SDS011;62001;53.366;6.636;2023-05-07T11:43:16;46.80;;;42.22;;
52940;SDS011;62001;53.366;6.636;2023-05-07T11:45:42;41.47;;;37.13;;
52940;SDS011;62001;53.366;6.636;2023-05-07T11:48:09;46.08;;;41.55;;
52940;SDS011;62001;53.366;6.636;2023-05-07T11:50:35;48.13;;;43.40;;
52940;SDS011;62001;53.366;6.636;2023-05-07T11:53:07;42.40;;;38.30;;
52940;SDS011;62001;53.366;6.636;2023-05-07T11:55:33;41.50;;;37.30;;
52940;SDS011;62001;53.366;6.636;2023-05-07T11:57:59;39.70;;;35.63;;
52940;SDS011;62001;53.366;6.636;2023-05-07T12:00:24;34.63;;;31.23;;
52940;SDS011;62001;53.366;6.636;2023-05-07T12:02:50;34.72;;;31.42;;
52940;SDS011;62001;53.366;6.636;2023-05-07T12:05:16;36.33;;;32.70;;
52940;SDS011;62001;53.366;6.636;2023-05-07T12:07:42;29.73;;;26.65;;
52940;SDS011;62001;53.366;6.636;2023-05-07T12:10:08;32.75;;;29.45;;
52940;SDS011;62001;53.366;6.636;2023-05-07T12:12:40;42.03;;;37.90;;
52940;SDS011;62001;53.366;6.636;2023-05-07T12:15:09;45.13;;;40.75;;
52940;SDS011;62001;53.366;6.636;2023-05-07T12:17:35;42.25;;;37.92;;
52940;SDS011;62001;53.366;6.636;2023-05-07T12:20:01;40.35;;;36.38;;
52940;SDS011;62001;53.366;6.636;2023-05-07T12:22:28;45.00;;;40.50;;
52940;SDS011;62001;53.366;6.636;2023-05-07T12:24:58;47.50;;;42.50;;
52940;SDS011;62001;53.366;6.636;2023-05-07T12:27:25;44.70;;;40.28;;
52940;SDS011;62001;53.366;6.636;2023-05-07T12:29:51;45.78;;;41.40;;
52940;SDS011;62001;53.366;6.636;2023-05-07T12:32:17;44.58;;;40.17;;
52940;SDS011;62001;53.366;6.636;2023-05-07T12:34:44;41.80;;;37.70;;
52940;SDS011;62001;53.366;6.636;2023-05-07T12:37:10;42.90;;;38.80;;
52940;SDS011;62001;53.366;6.636;2023-05-07T12:39:38;41.03;;;37.03;;
52940;SDS011;62001;53.366;6.636;2023-05-07T12:42:09;41.33;;;37.20;;
52940;SDS011;62001;53.366;6.636;2023-05-07T12:44:51;42.03;;;38.10;;
52940;SDS011;62001;53.366;6.636;2023-05-07T12:47:17;40.35;;;36.35;;
52940;SDS011;62001;53.366;6.636;2023-05-07T12:49:43;41.70;;;37.70;;
52940;SDS011;62001;53.366;6.636;2023-05-07T12:52:11;38.95;;;35.22;;
52940;SDS011;62001;53.366;6.636;2023-05-07T12:54:37;35.45;;;31.85;;
52940;SDS011;62001;53.366;6.636;2023-05-07T12:57:09;31.38;;;28.15;;
52940;SDS011;62001;53.366;6.636;2023-05-07T12:59:36;25.88;;;23.35;;
52940;SDS011;62001;53.366;6.636;2023-05-07T13:02:03;24.33;;;21.35;;
52940;SDS011;62001;53.366;6.636;2023-05-07T13:04:29;19.45;;;17.50;;
52940;SDS011;62001;53.366;6.636;2023-05-07T13:06:55;22.90;;;18.50;;
52940;SDS011;62001;53.366;6.636;2023-05-07T13:09:21;20.63;;;18.50;;
52940;SDS011;62001;53.366;6.636;2023-05-07T13:11:46;19.73;;;17.83;;
52940;SDS011;62001;53.366;6.636;2023-05-07T13:14:12;18.98;;;17.08;;
52940;SDS011;62001;53.366;6.636;2023-05-07T13:16:38;18.48;;;16.67;;
52940;SDS011;62001;53.366;6.636;2023-05-07T13:19:04;20.08;;;18.10;;
52940;SDS011;62001;53.366;6.636;2023-05-07T13:21:30;18.45;;;16.55;;
52940;SDS011;62001;53.366;6.636;2023-05-07T13:23:57;21.27;;;19.17;;
52940;SDS011;62001;53.366;6.636;2023-05-07T13:26:24;22.90;;;20.60;;
52940;SDS011;62001;53.366;6.636;2023-05-07T13:28:50;23.02;;;20.83;;
52940;SDS011;62001;53.366;6.636;2023-05-07T13:31:17;22.63;;;20.63;;
52940;SDS011;62001;53.366;6.636;2023-05-07T13:33:43;21.75;;;19.65;;
52940;SDS011;62001;53.366;6.636;2023-05-07T13:36:08;24.33;;;22.02;;
52940;SDS011;62001;53.366;6.636;2023-05-07T13:38:34;25.23;;;22.75;;
52940;SDS011;62001;53.366;6.636;2023-05-07T13:41:00;23.20;;;20.88;;
52940;SDS011;62001;53.366;6.636;2023-05-07T13:43:26;23.60;;;21.33;;
52940;SDS011;62001;53.366;6.636;2023-05-07T13:45:52;27.10;;;24.52;;
52940;SDS011;62001;53.366;6.636;2023-05-07T13:48:18;26.27;;;23.67;;
52940;SDS011;62001;53.366;6.636;2023-05-07T13:50:43;27.73;;;25.20;;
52940;SDS011;62001;53.366;6.636;2023-05-07T13:53:09;28.48;;;25.77;;
52940;SDS011;62001;53.366;6.636;2023-05-07T13:55:35;26.55;;;24.02;;
52940;SDS011;62001;53.366;6.636;2023-05-07T13:58:01;23.60;;;21.40;;
52940;SDS011;62001;53.366;6.636;2023-05-07T14:00:28;20.67;;;18.67;;
52940;SDS011;62001;53.366;6.636;2023-05-07T14:02:54;20.40;;;18.40;;
52940;SDS011;62001;53.366;6.636;2023-05-07T14:05:21;19.95;;;18.13;;
52940;SDS011;62001;53.366;6.636;2023-05-07T14:07:48;21.55;;;19.58;;
52940;SDS011;62001;53.366;6.636;2023-05-07T14:10:18;23.55;;;21.35;;
52940;SDS011;62001;53.366;6.636;2023-05-07T14:12:46;25.13;;;22.85;;
52940;SDS011;62001;53.366;6.636;2023-05-07T14:15:18;22.60;;;20.50;;
52940;SDS011;62001;53.366;6.636;2023-05-07T14:17:49;23.95;;;21.75;;
52940;SDS011;62001;53.366;6.636;2023-05-07T14:20:16;22.88;;;20.58;;
52940;SDS011;62001;53.366;6.636;2023-05-07T14:22:42;21.42;;;19.35;;
52940;SDS011;62001;53.366;6.636;2023-05-07T14:25:08;23.40;;;21.23;;
52940;SDS011;62001;53.366;6.636;2023-05-07T14:27:37;23.33;;;21.20;;
52940;SDS011;62001;53.366;6.636;2023-05-07T14:30:03;23.30;;;21.27;;
52940;SDS011;62001;53.366;6.636;2023-05-07T14:32:30;25.83;;;23.42;;
52940;SDS011;62001;53.366;6.636;2023-05-07T14:34:57;23.33;;;21.13;;
52940;SDS011;62001;53.366;6.636;2023-05-07T14:37:23;18.88;;;17.08;;
52940;SDS011;62001;53.366;6.636;2023-05-07T14:39:49;18.55;;;16.75;;
52940;SDS011;62001;53.366;6.636;2023-05-07T14:42:15;16.70;;;15.00;;